Airfield :
LOGIN :

Register | Disclaimer

   EN    FR    IT 

 










Legend :    VFR   Marginal VFR   IFR   Intensive IFR   Very Intensive IFR
Visi :
Ceiling :
>= 8 km
>= 3000ft
5 to 8 km
1000 to 3000 ft
1500m to 5 km
500 to 1000 ft
800 to 1500m
200 to 500 ft
< 800m
< 200 ft
Symbols :   Thunderstorms  Fog  Heavy snow  Heavy precipitations  Wind > 20 kt
SIGMETs :     Misc.  Thunderstorms  Icing  Turbulence  Mountain Waves  Volcanic Ashes






- Airport Elevation : 1300 ft
- IATA code : LIG


LFBL - Limoges

CURRENT METAR :
  • 110230Z AUTO 16005KT 9999 SCT044 BKN054 BKN078 04/M01 Q1017 BECMG 4000 RA BKN005 OVC018

EXPIRED METARs :
  • 110200Z AUTO 14004KT 9999 FEW049 SCT060 OVC082 04/M01 Q1017 BECMG 20012KT 4000 RA BKN005 OVC018
  • 110130Z AUTO 13005KT CAVOK 04/M01 Q1018 BECMG 20012KT 4000 RA BKN005 OVC018
  • 110100Z AUTO 13005KT 9999 FEW044 BKN068 OVC082 04/M00 Q1018 NOSIG
  • 110030Z AUTO 14008KT 9999 FEW047 BKN074 OVC094 04/M00 Q1018 NOSIG
  • 110000Z AUTO 14007KT CAVOK 03/00 Q1019 NOSIG

TAF TAF LFBL
Valid from the 11 at 00:00 until the 12 at 00:00 UTC


102300Z 1100/1124 14005KT CAVOK
BECMG 1101/1103 BKN025 BKN040
BECMG 1103/1105 20012KT 4000 RA BKN005 OVC018
BECMG 1111/1113 9999 SCT015 SCT020TCU
TEMPO 1114/1120 20015G30KT 4000 SHRA BKN007 SCT018CB
ATIS : +33 5 55 48 40 37



MET'MAP, your aeronautical weather chart ! - Copyright ORBIFLY December 2007 - Disclaimer

ORBIFLY MET'MAP TEAM :

Programming & Development : Alexandra Zaïnal
Concept & original design : Baudouin d'Aumeries
Assistance for programming : Marc-Olivier Méhu
Technical & hardware support : Manuel Goepfert

Contact : metmap@orbifly.com




SOURCES & CREDITS :

   NOAA